Time;durP1;ratioP1;P1;durP2;ratioP2;P2;SDS_P1;SDS_P2;PMS_P1;PMS_P2;Temp;Humidity;BMP_temperature;BMP_pressure;BME280_temperature;BME280_humidity;BME280_pressure;Samples;Min_cycle;Max_cycle;Signal;HPM_P1;HPM_P2
2023/09/18 00:00:45;;;;;;;0.40;0.30;;;22.50;99.90;;;;;;4982994;28;21125;-83
2023/09/18 00:03:11;;;;;;;0.40;0.27;;;22.40;99.90;;;;;;5002151;28;20820;-86
2023/09/18 00:05:36;;;;;;;0.40;0.30;;;22.40;99.90;;;;;;5000884;28;20468;-87
2023/09/18 00:08:02;;;;;;;0.40;0.30;;;22.50;99.90;;;;;;5002790;28;20206;-81
2023/09/18 00:10:31;;;;;;;0.40;0.30;;;22.50;99.90;;;;;;5004012;28;20217;-86
2023/09/18 00:12:58;;;;;;;0.50;0.40;;;22.70;99.90;;;;;;5007648;28;20282;-81
2023/09/18 00:15:25;;;;;;;0.70;0.60;;;22.70;99.90;;;;;;4983532;28;20480;-83
2023/09/18 00:17:50;;;;;;;0.40;0.30;;;22.70;99.90;;;;;;4986123;28;20474;-82
2023/09/18 00:20:17;;;;;;;0.40;0.30;;;22.80;99.90;;;;;;5002922;28;21183;-81
2023/09/18 00:22:43;;;;;;;0.40;0.30;;;22.80;99.90;;;;;;4988839;28;20194;-85
2023/09/18 00:25:08;;;;;;;0.70;0.70;;;22.90;99.90;;;;;;5005263;28;20448;-82
2023/09/18 00:27:35;;;;;;;0.40;0.30;;;22.90;99.90;;;;;;5019892;28;20186;-77
2023/09/18 00:30:02;;;;;;;0.40;0.30;;;22.90;99.90;;;;;;4982566;28;20182;-86
2023/09/18 00:32:28;;;;;;;0.40;0.20;;;22.90;99.90;;;;;;4982148;28;20457;-81
2023/09/18 00:34:53;;;;;;;0.40;0.20;;;22.90;99.90;;;;;;4998459;28;20471;-78
2023/09/18 00:37:19;;;;;;;0.40;0.30;;;22.90;99.90;;;;;;5015979;28;20555;-82
2023/09/18 00:39:44;;;;;;;0.40;0.30;;;23.30;99.90;;;;;;5006238;28;20194;-81
2023/09/18 00:42:13;;;;;;;0.40;0.20;;;22.80;99.90;;;;;;4987036;28;21225;-81
2023/09/18 00:44:40;;;;;;;0.50;0.40;;;22.80;99.90;;;;;;4989001;28;20209;-81
2023/09/18 00:47:07;;;;;;;0.40;0.30;;;22.80;99.90;;;;;;4985565;28;20449;-83
2023/09/18 00:49:34;;;;;;;0.40;0.30;;;22.80;99.90;;;;;;5010230;28;20437;-83
2023/09/18 00:51:59;;;;;;;0.40;0.30;;;22.90;99.90;;;;;;5005974;28;20468;-85
2023/09/18 00:54:25;;;;;;;0.40;0.20;;;22.80;99.90;;;;;;5011595;28;20468;-80
2023/09/18 00:56:53;;;;;;;0.40;0.27;;;22.90;99.90;;;;;;4988122;28;20214;-82
2023/09/18 00:59:20;;;;;;;0.40;0.30;;;22.90;99.90;;;;;;4985852;28;20190;-80
2023/09/18 01:01:48;;;;;;;0.40;0.20;;;22.90;99.90;;;;;;4990116;28;20535;-84
2023/09/18 01:04:15;;;;;;;0.40;0.30;;;22.90;99.90;;;;;;5007275;28;20580;-84
2023/09/18 01:06:41;;;;;;;0.40;0.30;;;22.80;99.90;;;;;;4989419;28;20449;-84
2023/09/18 01:09:12;;;;;;;0.40;0.30;;;22.80;99.90;;;;;;5007178;28;20487;-83
2023/09/18 01:12:15;;;;;;;0.40;0.33;;;22.80;99.90;;;;;;4984327;28;20186;-84
2023/09/18 01:15:03;;;;;;;0.40;0.30;;;22.80;99.90;;;;;;4986392;28;20432;-82
2023/09/18 01:17:30;;;;;;;0.40;0.27;;;22.80;99.90;;;;;;5006070;28;20610;-81
2023/09/18 01:19:56;;;;;;;0.40;0.30;;;22.80;99.90;;;;;;5011045;28;20465;-79
2023/09/18 01:22:22;;;;;;;0.40;0.30;;;22.80;99.90;;;;;;4985085;28;21096;-81
2023/09/18 01:24:48;;;;;;;0.40;0.30;;;22.80;99.90;;;;;;4998793;28;20190;-81
2023/09/18 01:27:18;;;;;;;1.53;0.93;;;22.80;99.90;;;;;;5005676;28;20902;-82
2023/09/18 01:29:47;;;;;;;0.40;0.23;;;22.80;99.90;;;;;;4990303;28;20221;-84
2023/09/18 01:32:14;;;;;;;0.40;0.30;;;23.10;99.90;;;;;;5000758;28;20480;-79
2023/09/18 01:34:49;;;;;;;0.40;0.20;;;22.80;99.90;;;;;;4991590;28;20465;-84
2023/09/18 01:37:20;;;;;;;0.57;0.57;;;22.90;99.90;;;;;;4984831;28;20913;-83
2023/09/18 01:39:47;;;;;;;0.40;0.30;;;23.00;99.90;;;;;;5005981;28;20443;-84
2023/09/18 01:42:13;;;;;;;0.40;0.30;;;23.00;99.90;;;;;;4986186;28;20469;-78
2023/09/18 01:44:39;;;;;;;0.50;0.30;;;23.00;99.90;;;;;;5007206;28;20433;-83
2023/09/18 01:47:08;;;;;;;0.40;0.30;;;23.00;99.90;;;;;;5013571;28;20194;-84
2023/09/18 01:49:36;;;;;;;0.40;0.20;;;23.10;99.90;;;;;;5004156;28;20212;-85
2023/09/18 01:52:03;;;;;;;0.40;0.30;;;23.10;99.90;;;;;;5004942;28;20489;-83
2023/09/18 01:54:29;;;;;;;0.40;0.30;;;23.10;99.90;;;;;;4990292;28;20465;-88
2023/09/18 01:56:55;;;;;;;0.50;0.43;;;23.10;99.90;;;;;;5007350;28;20464;-80
2023/09/18 01:59:21;;;;;;;0.40;0.30;;;23.10;99.90;;;;;;4982776;28;20438;-87
2023/09/18 02:01:48;;;;;;;0.40;0.30;;;23.20;99.90;;;;;;4992661;28;20194;-79
2023/09/18 02:04:13;;;;;;;0.40;0.30;;;23.10;99.90;;;;;;5006379;28;20441;-79
2023/09/18 02:06:40;;;;;;;0.40;0.30;;;23.10;99.90;;;;;;4979096;28;20440;-84
2023/09/18 02:09:07;;;;;;;1.13;1.13;;;23.10;99.90;;;;;;4984433;28;20190;-80
2023/09/18 02:11:33;;;;;;;0.40;0.30;;;23.10;99.90;;;;;;5003074;28;20469;-82
2023/09/18 02:13:59;;;;;;;0.40;0.20;;;23.00;99.90;;;;;;5003907;28;20480;-85
2023/09/18 02:16:25;;;;;;;0.50;0.40;;;24.70;99.90;;;;;;4987519;28;20478;-83
2023/09/18 02:18:54;;;;;;;0.40;0.30;;;23.10;99.90;;;;;;4998943;28;20186;-82
2023/09/18 02:21:20;;;;;;;0.40;0.30;;;22.90;99.90;;;;;;5001523;28;20884;-80
2023/09/18 02:23:48;;;;;;;0.40;0.30;;;22.90;99.90;;;;;;5009779;28;20453;-86
2023/09/18 02:26:14;;;;;;;0.40;0.30;;;22.60;99.90;;;;;;5010188;28;20437;-81
2023/09/18 02:28:39;;;;;;;2.97;0.90;;;22.50;99.90;;;;;;5009648;28;20453;-86
2023/09/18 02:31:05;;;;;;;0.40;0.30;;;22.50;99.90;;;;;;5004000;28;20202;-82
2023/09/18 02:33:30;;;;;;;0.40;0.30;;;22.50;99.90;;;;;;4989941;28;20324;-85
2023/09/18 02:35:57;;;;;;;0.40;0.27;;;22.60;99.90;;;;;;4992253;28;20344;-81
2023/09/18 02:38:22;;;;;;;0.40;0.30;;;22.50;99.90;;;;;;5017579;28;20229;-80
2023/09/18 02:40:48;;;;;;;0.40;0.30;;;22.60;99.90;;;;;;5008639;28;20465;-87
2023/09/18 02:43:13;;;;;;;0.40;0.30;;;22.80;99.90;;;;;;5003333;28;20692;-84
2023/09/18 02:45:40;;;;;;;0.40;0.30;;;22.60;99.90;;;;;;4987574;28;20240;-82
2023/09/18 02:48:05;;;;;;;0.40;0.27;;;22.70;99.90;;;;;;5015673;28;20182;-82
2023/09/18 02:50:31;;;;;;;0.40;0.40;;;22.60;99.90;;;;;;5012001;28;20517;-82
2023/09/18 02:52:56;;;;;;;0.40;0.30;;;22.50;99.90;;;;;;5008816;28;20210;-83
2023/09/18 02:55:22;;;;;;;0.40;0.30;;;22.30;99.90;;;;;;5012289;28;20196;-85
2023/09/18 02:57:47;;;;;;;0.40;0.20;;;22.30;99.90;;;;;;5011496;28;20218;-77
2023/09/18 03:00:13;;;;;;;0.40;0.20;;;23.70;99.90;;;;;;5017054;28;20214;-78
2023/09/18 03:02:39;;;;;;;0.40;0.30;;;22.40;99.90;;;;;;4987317;28;20599;-83
2023/09/18 03:05:05;;;;;;;0.40;0.20;;;22.40;99.90;;;;;;5007226;28;20457;-81
2023/09/18 03:07:30;;;;;;;0.40;0.30;;;22.30;99.90;;;;;;4991450;28;20237;-83
2023/09/18 03:09:56;;;;;;;4.77;0.67;;;22.30;99.90;;;;;;5010247;28;20205;-84
2023/09/18 03:12:22;;;;;;;0.40;0.30;;;22.30;99.90;;;;;;4989297;28;20217;-82
2023/09/18 03:14:48;;;;;;;0.40;0.20;;;22.30;99.90;;;;;;4998200;28;20182;-83
2023/09/18 03:17:14;;;;;;;0.40;0.20;;;;;;;;;;4990406;28;20542;-82
2023/09/18 03:19:39;;;;;;;0.40;0.23;;;22.20;99.90;;;;;;5007891;28;20907;-87
2023/09/18 03:22:05;;;;;;;0.40;0.30;;;22.20;99.90;;;;;;4997020;28;20449;-87
2023/09/18 03:24:30;;;;;;;0.40;0.30;;;22.10;99.90;;;;;;4991680;28;20219;-80
2023/09/18 03:26:56;;;;;;;0.40;0.20;;;22.20;99.90;;;;;;5010327;28;20270;-85
2023/09/18 03:29:21;;;;;;;0.40;0.30;;;22.30;99.90;;;;;;5004270;28;20192;-82
2023/09/18 03:31:47;;;;;;;0.40;0.30;;;22.20;99.90;;;;;;4986038;28;20958;-82
2023/09/18 03:34:13;;;;;;;0.40;0.30;;;22.20;99.90;;;;;;4990723;28;21246;-81
2023/09/18 03:36:39;;;;;;;0.40;0.20;;;22.10;99.90;;;;;;5007532;28;20277;-83
2023/09/18 03:39:05;;;;;;;0.40;0.27;;;22.00;99.90;;;;;;5008373;28;20179;-81
2023/09/18 03:41:33;;;;;;;0.40;0.30;;;22.00;99.90;;;;;;4994904;28;20441;-78
2023/09/18 03:44:00;;;;;;;0.40;0.30;;;21.80;99.90;;;;;;4996652;28;20465;-81
2023/09/18 03:46:26;;;;;;;0.40;0.30;;;21.60;99.90;;;;;;5007370;28;20441;-80
2023/09/18 03:48:52;;;;;;;0.40;0.20;;;21.60;99.90;;;;;;4984744;28;21021;-83
2023/09/18 03:51:19;;;;;;;0.40;0.20;;;22.50;99.90;;;;;;5007458;28;20434;-84
2023/09/18 03:53:44;;;;;;;0.40;0.20;;;21.50;99.90;;;;;;4984035;28;20214;-83
2023/09/18 03:56:10;;;;;;;0.40;0.20;;;21.60;99.90;;;;;;5012908;28;20524;-80
2023/09/18 03:58:36;;;;;;;0.40;0.30;;;21.80;99.90;;;;;;4994124;28;20208;-85
2023/09/18 04:01:01;;;;;;;0.40;0.23;;;21.90;99.90;;;;;;4991624;28;20186;-80
2023/09/18 04:03:27;;;;;;;0.40;0.20;;;22.00;99.90;;;;;;5009784;28;20214;-84
2023/09/18 04:05:52;;;;;;;0.40;0.30;;;22.20;99.90;;;;;;5010302;28;20193;-80
2023/09/18 04:08:18;;;;;;;0.40;0.30;;;22.20;99.90;;;;;;5006028;28;20186;-84
2023/09/18 04:10:44;;;;;;;0.40;0.30;;;22.30;99.90;;;;;;4997545;28;20203;-82
2023/09/18 04:13:10;;;;;;;0.40;0.20;;;22.50;99.90;;;;;;5010107;28;20225;-83
2023/09/18 04:15:37;;;;;;;0.40;0.30;;;22.50;99.90;;;;;;4989715;28;20679;-82
2023/09/18 04:18:05;;;;;;;0.40;0.30;;;22.50;99.90;;;;;;5007259;28;20469;-82
2023/09/18 04:20:30;;;;;;;0.40;0.30;;;22.50;99.90;;;;;;5009369;28;20460;-77
2023/09/18 04:23:22;;;;;;;0.40;0.30;;;22.40;99.90;;;;;;4993913;28;20465;-80
2023/09/18 04:25:49;;;;;;;0.40;0.30;;;22.30;99.90;;;;;;4988406;28;21010;-78
2023/09/18 04:28:17;;;;;;;0.40;0.20;;;22.10;99.90;;;;;;5007891;28;20947;-83
2023/09/18 04:30:43;;;;;;;0.40;0.20;;;21.70;99.90;;;;;;5006574;28;20464;-85
2023/09/18 04:33:08;;;;;;;0.40;0.30;;;21.50;99.90;;;;;;4998948;28;20485;-87
2023/09/18 04:35:34;;;;;;;0.50;0.40;;;21.10;99.90;;;;;;5007964;28;20940;-79
2023/09/18 04:38:00;;;;;;;0.40;0.30;;;21.00;99.90;;;;;;5001673;28;20202;-77
2023/09/18 04:40:31;;;;;;;0.40;0.20;;;20.90;99.90;;;;;;5010998;28;20189;-85
2023/09/18 04:42:58;;;;;;;0.40;0.30;;;20.70;99.90;;;;;;5002507;28;20206;-86
2023/09/18 04:45:25;;;;;;;0.40;0.20;;;20.40;99.90;;;;;;5011847;28;20523;-83
2023/09/18 04:47:50;;;;;;;0.40;0.30;;;20.30;99.90;;;;;;5015659;28;20460;-79
2023/09/18 04:50:16;;;;;;;0.40;0.20;;;20.20;99.90;;;;;;4987138;28;20555;-87
2023/09/18 04:52:43;;;;;;;0.40;0.30;;;20.20;99.90;;;;;;5013938;28;20210;-80
2023/09/18 04:55:09;;;;;;;0.40;0.20;;;20.10;99.90;;;;;;4996779;28;20179;-84
2023/09/18 04:57:35;;;;;;;0.40;0.20;;;20.00;99.90;;;;;;4992733;28;20498;-82
2023/09/18 05:00:02;;;;;;;0.50;0.30;;;;;;;;;;5009825;28;20919;-80
2023/09/18 05:02:27;;;;;;;0.40;0.30;;;19.70;99.90;;;;;;4994396;28;21232;-84
2023/09/18 05:04:55;;;;;;;0.40;0.30;;;19.90;99.90;;;;;;5010854;28;20754;-80
2023/09/18 05:07:21;;;;;;;0.40;0.20;;;19.80;99.90;;;;;;4995971;28;20194;-83
2023/09/18 05:09:46;;;;;;;0.40;0.20;;;19.90;99.90;;;;;;4988964;28;21957;-81
2023/09/18 05:12:13;;;;;;;0.40;0.30;;;19.80;99.90;;;;;;5006690;28;20757;-77
2023/09/18 05:14:43;;;;;;;0.40;0.23;;;19.80;99.90;;;;;;5008819;28;20189;-79
2023/09/18 05:17:16;;;;;;;0.40;0.20;;;19.80;99.90;;;;;;5014482;28;20479;-81
2023/09/18 05:19:42;;;;;;;0.40;0.30;;;19.90;99.90;;;;;;5019501;28;20449;-78
2023/09/18 05:22:12;;;;;;;0.40;0.30;;;19.80;99.90;;;;;;5009898;28;21668;-85
2023/09/18 05:24:38;;;;;;;0.40;0.20;;;19.80;99.90;;;;;;5025601;28;20433;-77
2023/09/18 05:27:06;;;;;;;0.40;0.30;;;19.90;99.90;;;;;;5022634;28;20456;-79
2023/09/18 05:29:32;;;;;;;0.40;0.20;;;19.80;99.90;;;;;;5021906;28;20476;-84
2023/09/18 05:31:57;;;;;;;0.40;0.20;;;19.80;99.90;;;;;;4997810;28;20453;-78
2023/09/18 05:34:23;;;;;;;0.40;0.20;;;19.80;99.90;;;;;;5027548;28;20439;-84
2023/09/18 05:36:48;;;;;;;0.40;0.20;;;19.90;99.90;;;;;;5015111;28;20985;-81
2023/09/18 05:39:15;;;;;;;0.40;0.20;;;19.80;99.90;;;;;;5007176;28;20179;-81
2023/09/18 05:41:41;;;;;;;0.40;0.20;;;19.80;99.90;;;;;;4980821;28;20217;-84
2023/09/18 05:44:07;;;;;;;0.40;0.20;;;19.70;99.90;;;;;;5001702;28;20455;-82
2023/09/18 05:46:35;;;;;;;0.40;0.20;;;19.70;99.90;;;;;;5001635;28;20512;-83
2023/09/18 05:49:00;;;;;;;0.40;0.20;;;19.60;99.90;;;;;;5005895;28;20441;-84
2023/09/18 05:51:27;;;;;;;0.40;0.20;;;19.50;99.90;;;;;;5006998;28;21116;-82
2023/09/18 05:53:52;;;;;;;0.40;0.30;;;19.60;99.90;;;;;;5018047;28;20206;-82
2023/09/18 05:56:18;;;;;;;0.40;0.23;;;19.70;99.90;;;;;;5014957;28;20444;-86
2023/09/18 05:58:44;;;;;;;0.40;0.30;;;19.70;99.90;;;;;;4989522;28;20340;-86
2023/09/18 06:01:10;;;;;;;2.30;0.57;;;19.80;99.90;;;;;;5008940;28;20559;-87
2023/09/18 06:03:35;;;;;;;0.40;0.30;;;19.80;99.90;;;;;;5006792;28;20244;-86
2023/09/18 06:06:05;;;;;;;0.40;0.30;;;19.80;99.90;;;;;;4980619;28;20310;-85
2023/09/18 06:08:31;;;;;;;0.40;0.20;;;19.80;99.90;;;;;;5005151;28;20851;-84
2023/09/18 06:10:57;;;;;;;0.50;0.30;;;19.90;99.90;;;;;;4999562;28;20659;-83
2023/09/18 06:13:25;;;;;;;0.40;0.20;;;20.00;99.90;;;;;;4997871;28;20480;-80
2023/09/18 06:15:52;;;;;;;0.40;0.20;;;20.20;99.90;;;;;;5001771;28;20452;-83
2023/09/18 06:18:20;;;;;;;0.40;0.20;;;20.30;99.90;;;;;;4982326;28;21560;-84
2023/09/18 06:20:46;;;;;;;0.40;0.30;;;20.40;99.90;;;;;;4997676;28;20791;-82
2023/09/18 06:23:12;;;;;;;0.40;0.20;;;20.40;99.90;;;;;;4996692;28;20551;-81
2023/09/18 06:25:38;;;;;;;0.40;0.30;;;20.50;99.90;;;;;;4977798;28;20441;-84
2023/09/18 06:28:04;;;;;;;0.40;0.30;;;20.40;99.90;;;;;;4991683;28;22295;-82
2023/09/18 06:30:34;;;;;;;0.40;0.27;;;20.50;99.90;;;;;;4970230;28;20449;-82
2023/09/18 06:33:01;;;;;;;0.40;0.30;;;20.50;99.90;;;;;;4978920;28;20238;-80
2023/09/18 06:35:26;;;;;;;0.40;0.30;;;20.40;99.90;;;;;;4995397;28;20574;-80
2023/09/18 06:37:54;;;;;;;0.40;0.30;;;21.00;99.90;;;;;;4994080;28;20210;-79
2023/09/18 06:40:20;;;;;;;0.40;0.20;;;20.50;99.90;;;;;;4983043;28;20301;-82
2023/09/18 06:42:46;;;;;;;0.40;0.30;;;20.50;99.90;;;;;;5000199;28;20577;-80
2023/09/18 06:45:12;;;;;;;0.40;0.20;;;20.50;99.90;;;;;;4996480;28;20201;-83
2023/09/18 06:47:40;;;;;;;0.40;0.20;;;20.50;99.90;;;;;;4997712;28;20288;-79
2023/09/18 06:50:06;;;;;;;0.40;0.30;;;20.50;99.90;;;;;;4998509;28;20448;-81
2023/09/18 06:52:32;;;;;;;0.40;0.20;;;20.60;99.90;;;;;;4996839;28;20450;-79
2023/09/18 06:54:57;;;;;;;0.40;0.30;;;20.60;99.90;;;;;;4976686;28;20524;-82
2023/09/18 06:57:24;;;;;;;0.40;0.20;;;20.70;99.90;;;;;;5000182;28;20225;-77
2023/09/18 06:59:49;;;;;;;0.40;0.20;;;20.70;99.90;;;;;;5012011;28;20281;-81
2023/09/18 07:02:15;;;;;;;0.40;0.20;;;20.90;99.90;;;;;;5007491;28;20537;-76
2023/09/18 07:04:45;;;;;;;0.40;0.30;;;21.00;99.90;;;;;;5008164;28;20336;-82
2023/09/18 07:07:14;;;;;;;0.40;0.20;;;21.00;99.90;;;;;;4977931;28;21029;-80
2023/09/18 07:09:41;;;;;;;0.50;0.33;;;21.00;99.90;;;;;;4996582;28;20444;-80
2023/09/18 07:12:10;;;;;;;0.40;0.20;;;20.90;99.90;;;;;;4975838;28;20493;-81
2023/09/18 07:14:37;;;;;;;0.40;0.30;;;21.20;99.90;;;;;;4977311;28;20543;-81
2023/09/18 07:17:04;;;;;;;0.40;0.30;;;21.30;99.90;;;;;;4995817;28;20484;-81
2023/09/18 07:19:29;;;;;;;0.40;0.30;;;21.40;99.90;;;;;;4975364;28;21028;-81
2023/09/18 07:21:55;;;;;;;0.40;0.30;;;21.50;99.90;;;;;;4994916;28;20441;-80
2023/09/18 07:24:20;;;;;;;0.40;0.30;;;21.50;99.90;;;;;;4994166;28;20270;-82
2023/09/18 07:26:47;;;;;;;0.40;0.20;;;21.40;99.90;;;;;;5007259;28;20186;-83
2023/09/18 07:29:16;;;;;;;0.40;0.30;;;21.40;99.90;;;;;;5006420;28;20192;-80
2023/09/18 07:31:42;;;;;;;0.40;0.20;;;21.20;99.90;;;;;;4993289;28;20505;-78
2023/09/18 07:34:09;;;;;;;0.40;0.30;;;21.20;99.90;;;;;;4984742;28;20457;-80
2023/09/18 07:36:35;;;;;;;0.40;0.30;;;21.30;99.90;;;;;;5007173;28;20438;-83
2023/09/18 07:39:00;;;;;;;0.40;0.30;;;21.40;99.90;;;;;;4989518;28;20503;-80
2023/09/18 07:41:26;;;;;;;0.40;0.30;;;21.60;99.90;;;;;;5005088;28;20192;-78
2023/09/18 07:43:51;;;;;;;0.67;0.60;;;21.80;99.90;;;;;;5003222;28;20209;-75
2023/09/18 07:46:17;;;;;;;0.40;0.20;;;21.80;99.90;;;;;;4999142;28;20237;-77
2023/09/18 07:48:42;;;;;;;0.40;0.20;;;21.80;99.90;;;;;;5002114;28;20187;-80
2023/09/18 07:51:12;;;;;;;0.40;0.20;;;21.70;99.90;;;;;;5000492;28;20278;-81
2023/09/18 07:53:38;;;;;;;0.40;0.23;;;21.70;99.90;;;;;;5012972;28;20233;-82
2023/09/18 07:56:04;;;;;;;0.40;0.20;;;21.70;99.90;;;;;;5000814;28;20453;-81
2023/09/18 07:58:30;;;;;;;0.40;0.20;;;21.70;99.90;;;;;;4981377;28;20253;-82
2023/09/18 08:00:57;;;;;;;0.40;0.30;;;21.60;99.90;;;;;;5004710;28;20472;-79
2023/09/18 08:03:26;;;;;;;0.40;0.30;;;21.40;99.90;;;;;;5009586;28;20245;-79
2023/09/18 08:05:53;;;;;;;0.40;0.30;;;21.30;99.90;;;;;;4986463;28;20457;-79
2023/09/18 08:08:20;;;;;;;0.40;0.20;;;21.20;99.90;;;;;;4972610;28;20445;-78
2023/09/18 08:10:46;;;;;;;0.40;0.30;;;21.40;99.90;;;;;;5001272;28;20481;-85
2023/09/18 08:13:12;;;;;;;0.40;0.27;;;21.80;99.90;;;;;;4982087;28;21421;-83
2023/09/18 08:15:38;;;;;;;0.40;0.27;;;22.20;99.90;;;;;;5001534;28;20441;-81
2023/09/18 08:18:04;;;;;;;0.40;0.27;;;22.40;99.90;;;;;;4982081;28;20495;-83
2023/09/18 08:20:30;;;;;;;0.40;0.30;;;22.80;99.90;;;;;;4979187;28;20229;-83
2023/09/18 08:22:56;;;;;;;0.40;0.30;;;23.30;99.90;;;;;;4997838;28;20234;-80
2023/09/18 08:25:22;;;;;;;0.40;0.30;;;23.70;99.90;;;;;;4981067;28;20194;-82
2023/09/18 08:27:48;;;;;;;0.40;0.20;;;24.10;99.90;;;;;;5002658;28;20449;-83
2023/09/18 08:30:14;;;;;;;0.40;0.20;;;24.10;99.90;;;;;;4989477;28;20283;-83
2023/09/18 08:32:41;;;;;;;0.40;0.27;;;23.50;99.90;;;;;;5005596;28;21002;-80
2023/09/18 08:35:08;;;;;;;0.40;0.20;;;22.60;99.90;;;;;;5006882;28;20445;-79
2023/09/18 08:37:34;;;;;;;0.40;0.30;;;22.40;99.90;;;;;;4998506;28;20484;-80
2023/09/18 08:40:09;;;;;;;0.40;0.30;;;21.70;99.90;;;;;;4984424;28;20433;-81
2023/09/18 08:42:37;;;;;;;0.40;0.20;;;21.80;99.90;;;;;;4997775;28;20789;-81
2023/09/18 08:45:08;;;;;;;0.40;0.30;;;21.40;99.90;;;;;;4995941;28;20445;-85
2023/09/18 08:47:35;;;;;;;0.40;0.20;;;21.40;99.90;;;;;;5011678;28;20447;-83
2023/09/18 08:50:01;;;;;;;0.40;0.30;;;21.50;99.90;;;;;;5003861;28;20469;-81
2023/09/18 08:52:27;;;;;;;0.40;0.23;;;21.50;99.90;;;;;;5011504;28;20546;-78
2023/09/18 08:54:55;;;;;;;0.40;0.30;;;21.80;99.90;;;;;;4991326;28;20521;-80
2023/09/18 08:57:21;;;;;;;0.40;0.23;;;21.50;99.90;;;;;;4991720;28;20469;-78
2023/09/18 08:59:50;;;;;;;0.40;0.30;;;21.20;99.90;;;;;;5006476;28;20445;-78
2023/09/18 09:02:15;;;;;;;0.40;0.30;;;20.80;99.90;;;;;;5004542;28;20206;-76
2023/09/18 09:04:41;;;;;;;0.40;0.20;;;20.40;99.90;;;;;;5003630;28;20506;-79
2023/09/18 09:07:08;;;;;;;0.40;0.30;;;20.10;99.90;;;;;;4989215;28;20198;-82
2023/09/18 09:09:34;;;;;;;0.40;0.20;;;20.00;99.90;;;;;;5011259;28;20927;-84
2023/09/18 09:11:59;;;;;;;0.40;0.30;;;19.80;99.90;;;;;;5006161;28;20437;-80
2023/09/18 09:14:28;;;;;;;0.40;0.20;;;19.60;99.90;;;;;;5007234;28;20635;-79
2023/09/18 09:16:55;;;;;;;0.40;0.30;;;19.40;99.90;;;;;;5007909;28;20218;-80
2023/09/18 09:19:32;;;;;;;0.40;0.20;;;19.20;99.90;;;;;;4994487;28;20438;-76
2023/09/18 09:21:58;;;;;;;0.40;0.30;;;19.10;99.90;;;;;;5011190;28;20445;-79
2023/09/18 09:24:43;;;;;;;0.40;0.20;;;19.10;99.90;;;;;;5013694;28;20464;-78
2023/09/18 09:27:10;;;;;;;0.40;0.30;;;19.00;99.90;;;;;;4975390;28;20449;-83
2023/09/18 09:29:37;;;;;;;0.40;0.20;;;19.00;99.90;;;;;;4996163;28;20452;-82
2023/09/18 09:32:16;;;;;;;0.40;0.30;;;19.00;99.90;;;;;;4981530;28;20504;-85
2023/09/18 09:34:43;;;;;;;0.40;0.20;;;18.90;99.90;;;;;;5001148;28;20519;-82
2023/09/18 09:37:08;;;;;;;0.40;0.20;;;18.80;99.90;;;;;;4984497;28;20484;-82
2023/09/18 09:39:34;;;;;;;0.40;0.30;;;18.70;99.90;;;;;;5002856;28;20974;-82
2023/09/18 09:42:03;;;;;;;0.40;0.20;;;18.70;99.90;;;;;;5001107;28;20190;-79
2023/09/18 09:44:32;;;;;;;0.40;0.20;;;18.80;99.90;;;;;;5002516;28;20186;-84
2023/09/18 09:46:59;;;;;;;0.40;0.20;;;18.90;99.90;;;;;;5005981;28;20468;-80
2023/09/18 09:49:27;;;;;;;0.40;0.20;;;18.90;99.90;;;;;;4983785;28;22223;-84
2023/09/18 09:51:54;;;;;;;0.40;0.20;;;18.90;99.90;;;;;;5001213;28;20445;-82
2023/09/18 09:54:39;;;;;;;0.40;0.20;;;18.90;99.90;;;;;;5004180;28;20465;-82
2023/09/18 09:57:06;;;;;;;0.40;0.20;;;18.90;99.90;;;;;;5016609;28;20484;-77
2023/09/18 09:59:35;;;;;;;0.40;0.30;;;19.00;99.90;;;;;;5023696;28;20453;-81
2023/09/18 10:02:01;;;;;;;0.40;0.30;;;19.10;99.90;;;;;;5018888;28;20460;-84
2023/09/18 10:04:31;;;;;;;0.40;0.30;;;19.20;99.90;;;;;;5011951;28;20453;-77
2023/09/18 10:07:07;;;;;;;0.40;0.20;;;19.40;99.90;;;;;;4993909;28;21530;-80
2023/09/18 10:09:36;;;;;;;0.40;0.27;;;19.70;99.90;;;;;;5008726;28;20949;-78
2023/09/18 10:12:05;;;;;;;0.40;0.30;;;19.90;99.90;;;;;;5016046;28;20449;-82
2023/09/18 10:14:34;;;;;;;0.40;0.20;;;20.20;99.90;;;;;;4996850;28;20449;-82
2023/09/18 10:17:07;;;;;;;0.40;0.30;;;20.20;99.90;;;;;;4993674;28;20443;-80
2023/09/18 10:20:09;;;;;;;0.40;0.20;;;20.20;99.90;;;;;;5008643;28;20514;-83
2023/09/18 10:22:39;;;;;;;0.40;0.20;;;20.10;99.90;;;;;;4998093;28;20469;-81
2023/09/18 10:25:19;;;;;;;0.40;0.30;;;20.00;99.90;;;;;;4983782;28;20694;-80
2023/09/18 10:27:49;;;;;;;0.40;0.20;;;19.80;99.90;;;;;;5002193;28;20445;-84
2023/09/18 10:30:18;;;;;;;0.40;0.20;;;19.60;99.90;;;;;;4981224;28;20441;-82
2023/09/18 10:32:48;;;;;;;0.40;0.20;;;19.50;99.90;;;;;;5006010;28;20472;-80
2023/09/18 10:35:15;;;;;;;0.40;0.20;;;19.40;99.90;;;;;;5006118;28;20604;-82
2023/09/18 10:37:43;;;;;;;0.40;0.20;;;19.30;99.90;;;;;;5003410;28;21098;-81
2023/09/18 10:40:09;;;;;;;0.40;0.20;;;20.90;99.90;;;;;;5001086;28;20563;-82
2023/09/18 10:42:38;;;;;;;0.40;0.20;;;19.50;99.90;;;;;;4977864;28;20773;-82
2023/09/18 10:45:04;;;;;;;0.40;0.20;;;19.50;99.90;;;;;;5007874;28;20448;-81
2023/09/18 10:47:31;;;;;;;1.17;1.07;;;19.40;99.90;;;;;;4985845;28;20441;-82
2023/09/18 10:49:57;;;;;;;0.40;0.20;;;19.30;99.90;;;;;;4991645;28;20498;-83
2023/09/18 10:52:22;;;;;;;0.40;0.20;;;19.40;99.90;;;;;;5001643;28;20469;-83
2023/09/18 10:54:48;;;;;;;0.40;0.20;;;19.40;99.90;;;;;;4983849;28;20544;-80
2023/09/18 10:57:14;;;;;;;0.40;0.20;;;19.40;99.90;;;;;;4985780;28;20226;-84
2023/09/18 10:59:46;;;;;;;0.40;0.20;;;20.20;99.90;;;;;;4981280;28;20197;-79
2023/09/18 11:02:16;;;;;;;0.40;0.20;;;19.50;99.90;;;;;;4996727;28;20210;-80
2023/09/18 11:04:44;;;;;;;0.50;0.40;;;19.80;99.90;;;;;;5001144;28;20712;-84
2023/09/18 11:07:20;;;;;;;0.40;0.20;;;19.70;99.90;;;;;;5002046;28;20452;-81
2023/09/18 11:09:45;;;;;;;0.40;0.30;;;19.60;99.90;;;;;;5007904;28;20440;-85
2023/09/18 11:12:14;;;;;;;0.40;0.20;;;19.60;99.90;;;;;;4998534;28;20479;-79
2023/09/18 11:14:45;;;;;;;0.40;0.20;;;19.50;99.90;;;;;;4982873;28;20213;-79
2023/09/18 11:17:34;;;;;;;0.40;0.30;;;19.60;99.90;;;;;;5015678;28;20467;-76
2023/09/18 11:20:14;;;;;;;0.40;0.30;;;19.60;99.90;;;;;;5008945;28;20443;-79
2023/09/18 11:23:18;;;;;;;0.40;0.30;;;19.60;99.90;;;;;;5017880;28;20479;-80
2023/09/18 11:25:45;;;;;;;0.40;0.20;;;19.50;99.90;;;;;;5006252;28;20452;-78
2023/09/18 11:28:19;;;;;;;0.40;0.20;;;19.60;99.90;;;;;;5014689;28;20444;-82
2023/09/18 11:31:02;;;;;;;0.40;0.30;;;19.80;99.90;;;;;;4985957;28;20448;-81
2023/09/18 11:33:39;;;;;;;0.40;0.30;;;20.00;99.90;;;;;;4988040;28;21353;-81
2023/09/18 11:36:12;;;;;;;0.40;0.20;;;20.00;99.90;;;;;;5006285;28;20468;-84
2023/09/18 11:39:02;;;;;;;0.40;0.20;;;20.20;99.90;;;;;;5011021;28;20552;-82
2023/09/18 11:41:30;;;;;;;0.40;0.20;;;20.50;99.90;;;;;;5008734;28;20441;-80
2023/09/18 11:44:11;;;;;;;0.40;0.30;;;20.50;99.90;;;;;;5011107;28;20448;-81
2023/09/18 11:46:39;;;;;;;0.40;0.30;;;20.70;99.90;;;;;;5006809;28;20467;-80
2023/09/18 11:49:10;;;;;;;0.40;0.30;;;20.60;99.90;;;;;;4989755;28;20643;-81
2023/09/18 11:51:36;;;;;;;0.40;0.20;;;20.60;99.90;;;;;;5006349;28;20522;-83
2023/09/18 11:54:05;;;;;;;0.40;0.20;;;20.60;99.90;;;;;;4988512;28;20467;-83
2023/09/18 11:56:32;;;;;;;0.40;0.20;;;20.70;99.90;;;;;;5008844;28;20441;-79
2023/09/18 11:59:04;;;;;;;0.40;0.20;;;20.90;99.90;;;;;;5009592;28;20529;-82
2023/09/18 12:01:30;;;;;;;0.40;0.20;;;20.90;99.90;;;;;;5008745;28;20469;-81
2023/09/18 12:04:07;;;;;;;0.40;0.30;;;20.80;99.90;;;;;;5005174;28;20457;-80
2023/09/18 12:06:36;;;;;;;0.40;0.20;;;20.80;99.90;;;;;;4982456;28;20453;-81
2023/09/18 12:09:03;;;;;;;0.40;0.20;;;20.90;99.90;;;;;;5008380;28;20499;-82
2023/09/18 12:11:29;;;;;;;0.40;0.20;;;21.00;99.90;;;;;;4993493;28;20476;-80
2023/09/18 12:13:55;;;;;;;0.40;0.30;;;20.70;99.90;;;;;;5010637;28;20467;-78
2023/09/18 12:16:21;;;;;;;0.40;0.30;;;20.60;99.90;;;;;;5013587;28;20453;-81
2023/09/18 12:18:48;;;;;;;0.40;0.30;;;20.40;99.90;;;;;;4988140;28;20492;-83
2023/09/18 12:21:15;;;;;;;0.40;0.30;;;20.40;99.90;;;;;;5009957;28;20277;-82
2023/09/18 12:23:45;;;;;;;0.40;0.20;;;20.30;99.90;;;;;;5018136;28;20480;-78
2023/09/18 12:26:13;;;;;;;0.40;0.30;;;20.10;99.90;;;;;;5020090;28;20508;-77
2023/09/18 12:28:40;;;;;;;0.50;0.40;;;20.20;99.90;;;;;;5014850;28;20457;-78
2023/09/18 12:31:06;;;;;;;0.40;0.30;;;20.40;99.90;;;;;;5018270;28;20537;-78
2023/09/18 12:33:36;;;;;;;0.40;0.30;;;20.70;99.90;;;;;;5014359;28;20468;-75
2023/09/18 12:36:04;;;;;;;0.40;0.30;;;20.70;99.90;;;;;;5018565;28;20425;-80
2023/09/18 12:38:30;;;;;;;0.40;0.20;;;21.00;99.90;;;;;;5006841;28;20477;-83
2023/09/18 12:41:00;;;;;;;0.40;0.20;;;22.10;99.90;;;;;;5009719;28;20437;-86
2023/09/18 12:43:29;;;;;;;0.40;0.30;;;21.10;99.90;;;;;;5004892;28;20453;-81
2023/09/18 12:45:55;;;;;;;0.40;0.20;;;21.00;99.90;;;;;;4996724;28;20449;-79
2023/09/18 12:48:21;;;;;;;0.40;0.27;;;20.80;99.90;;;;;;4994169;28;20508;-79
2023/09/18 12:50:53;;;;;;;0.40;0.30;;;20.90;99.90;;;;;;4990392;28;20636;-85